Details for Air Canada at CYUL




Go Back


Latest METAR
Local Time

CYUL 252200Z 23020G27KT 15SM FEW045 OVC160 23/14 A2965 RMK CU1AC8 CU TR SLP043 DENSITY ALT 1500FT

25/05/2018, 18:12:18

Description
Results
Air Canada Logo
Number of Pilots based at CYUL
1 Pilots Based here
Number of Air Canada Flights Departed from CYUL
2 Flights Departed
Number of Air Canada Flights Arrived at CYUL
1 Flights Arrived
Number of Air Canada Schedules Departing from CYUL
133 Schedules
Number of Air Canada Schedules Arriving at CYUL
130 Schedules
Number of Air Canada Schedules Departing from CYUL availible today
105 Schedules Today
Number of Air Canada Schedules Arriving at CYUL availible today
107 Schedules Today
Average Landing Rate at CYUL
-186 fpm
Air Canada Average Landing Rate at CYUL
-117 fpm
Total Fuel Purchased at CYUL by Air Canada
6,109.44 kgs / 13,468.87 lbs

Pilots Based at CYUL


Pilot ID
Pilot Name
Pilot Rank
No. of Flights
No. of Flying Hours
Pierre Castonguay
3
3.38
Content